Time;durP1;ratioP1;P1;durP2;ratioP2;P2;SDS_P1;SDS_P2;PMS_P1;PMS_P2;Temp;Humidity;BMP_temperature;BMP_pressure;BME280_temperature;BME280_humidity;BME280_pressure;Samples;Min_cycle;Max_cycle;Signal;HPM_P1;HPM_P2
2024/04/09 00:00:10;;;;;;;0.00;0.00;;;23.80;42.30;;;;;;5335795;26;20231;-57
2024/04/09 00:02:42;;;;;;;0.00;0.00;;;23.90;42.30;;;;;;5339151;26;20328;-55
2024/04/09 00:05:11;;;;;;;0.00;0.00;;;23.90;42.20;;;;;;5339679;26;20239;-53
2024/04/09 00:07:43;;;;;;;0.00;0.00;;;23.90;42.10;;;;;;5338303;26;20715;-56
2024/04/09 00:10:17;;;;;;;0.00;0.00;;;24.00;42.10;;;;;;5305692;26;20312;-51
2024/04/09 00:12:52;;;;;;;0.10;0.10;;;24.00;42.00;;;;;;5319231;26;20227;-53
2024/04/09 00:15:22;;;;;;;0.00;0.00;;;24.00;42.00;;;;;;5338684;26;20223;-55
2024/04/09 00:18:11;;;;;;;0.00;0.00;;;24.10;42.00;;;;;;5338924;26;20244;-50
2024/04/09 00:20:40;;;;;;;0.00;0.00;;;24.10;42.00;;;;;;5339878;26;20261;-55
2024/04/09 00:23:16;;;;;;;0.00;0.00;;;24.20;42.00;;;;;;5339051;26;20310;-52
2024/04/09 00:25:49;;;;;;;0.00;0.00;;;24.20;41.90;;;;;;5339053;26;20312;-53
2024/04/09 00:28:22;;;;;;;0.00;0.00;;;24.20;41.90;;;;;;5338355;26;20231;-54
2024/04/09 00:30:52;;;;;;;0.10;0.10;;;24.20;41.80;;;;;;5338732;26;20773;-50
2024/04/09 00:33:25;;;;;;;0.00;0.00;;;24.30;41.80;;;;;;5332978;26;20224;-54
2024/04/09 00:35:55;;;;;;;0.00;0.00;;;24.30;41.70;;;;;;5310355;26;20352;-51
2024/04/09 00:38:27;;;;;;;0.00;0.00;;;24.30;41.70;;;;;;5303878;26;20240;-51
2024/04/09 00:40:59;;;;;;;0.00;0.00;;;24.30;41.70;;;;;;5303652;26;20329;-50
2024/04/09 00:43:32;;;;;;;0.00;0.00;;;24.40;41.70;;;;;;5304280;26;20255;-52
2024/04/09 00:46:01;;;;;;;0.00;0.00;;;24.40;41.70;;;;;;5305056;26;20272;-50
2024/04/09 00:48:33;;;;;;;0.00;0.00;;;24.40;41.60;;;;;;5334720;26;20742;-49
2024/04/09 00:51:05;;;;;;;0.00;0.00;;;24.50;41.50;;;;;;5337233;26;20227;-51
2024/04/09 00:53:39;;;;;;;0.00;0.00;;;24.50;41.50;;;;;;5307619;26;20236;-52
2024/04/09 00:56:12;;;;;;;0.00;0.00;;;24.60;41.50;;;;;;5330075;26;20223;-51
2024/04/09 00:58:45;;;;;;;0.00;0.00;;;24.60;41.30;;;;;;5341516;26;20998;-51
2024/04/09 01:01:16;;;;;;;0.00;0.00;;;24.60;41.30;;;;;;5341686;26;20265;-52
2024/04/09 01:03:49;;;;;;;0.03;0.03;;;24.70;41.30;;;;;;5338300;26;20772;-53
2024/04/09 01:06:18;;;;;;;0.00;0.00;;;24.70;41.20;;;;;;5342504;26;20258;-48
2024/04/09 01:08:51;;;;;;;0.00;0.00;;;24.70;41.20;;;;;;5341843;26;20282;-54
2024/04/09 01:11:23;;;;;;;0.00;0.00;;;24.80;41.20;;;;;;5341030;26;20915;-51
2024/04/09 01:13:55;;;;;;;0.00;0.00;;;24.80;41.10;;;;;;5341190;26;20235;-51
2024/04/09 01:16:24;;;;;;;0.00;0.00;;;24.80;41.10;;;;;;5340644;26;20273;-55
2024/04/09 01:18:57;;;;;;;0.00;0.00;;;24.90;41.00;;;;;;5341990;26;20243;-53
2024/04/09 01:21:26;;;;;;;0.10;0.10;;;24.90;41.00;;;;;;5341669;26;20328;-52
2024/04/09 01:24:02;;;;;;;0.00;0.00;;;25.00;40.90;;;;;;5340980;26;20211;-48
2024/04/09 01:26:31;;;;;;;0.00;0.00;;;25.00;40.90;;;;;;5341412;26;20223;-49
2024/04/09 01:29:04;;;;;;;0.00;0.00;;;25.00;40.90;;;;;;5341905;26;20235;-50
2024/04/09 01:31:34;;;;;;;0.00;0.00;;;25.00;40.70;;;;;;5342880;26;20612;-52
2024/04/09 01:34:09;;;;;;;0.00;0.00;;;25.10;40.80;;;;;;5341741;26;20231;-48
2024/04/09 01:36:38;;;;;;;0.03;0.03;;;25.10;40.80;;;;;;5342199;26;20219;-52
2024/04/09 01:39:14;;;;;;;0.00;0.00;;;25.10;40.80;;;;;;5341476;26;20292;-47
2024/04/09 01:41:44;;;;;;;0.10;0.10;;;25.10;40.80;;;;;;5340525;26;20695;-53
2024/04/09 01:44:16;;;;;;;0.00;0.00;;;25.20;40.80;;;;;;5341529;26;20282;-52
2024/04/09 01:46:47;;;;;;;0.00;0.00;;;25.20;40.80;;;;;;5341985;26;20215;-50
2024/04/09 01:49:20;;;;;;;0.00;0.00;;;25.20;41.50;;;;;;5341293;26;20243;-52
2024/04/09 01:51:50;;;;;;;0.00;0.00;;;25.30;40.90;;;;;;5341365;26;20227;-50
2024/04/09 01:54:26;;;;;;;0.00;0.00;;;25.30;40.90;;;;;;5341321;26;20311;-51
2024/04/09 01:56:55;;;;;;;0.00;0.00;;;25.30;40.90;;;;;;5310883;26;21343;-55
2024/04/09 01:59:27;;;;;;;0.00;0.00;;;25.30;40.80;;;;;;5305670;26;20371;-52
2024/04/09 02:01:57;;;;;;;0.00;0.00;;;25.30;40.80;;;;;;5322377;26;20278;-50
2024/04/09 02:04:32;;;;;;;0.00;0.00;;;25.30;40.80;;;;;;5342004;26;20763;-54
2024/04/09 02:07:01;;;;;;;0.10;0.10;;;25.30;40.80;;;;;;5338512;26;20710;-53
2024/04/09 02:09:36;;;;;;;0.00;0.00;;;25.40;40.90;;;;;;5340930;26;20231;-51
2024/04/09 02:12:07;;;;;;;0.00;0.00;;;25.30;40.70;;;;;;5341583;26;20274;-51
2024/04/09 02:14:40;;;;;;;0.00;0.00;;;25.40;41.20;;;;;;5339784;26;20614;-54
2024/04/09 02:17:14;;;;;;;0.00;0.00;;;25.40;40.70;;;;;;5316132;26;20283;-55
2024/04/09 02:19:47;;;;;;;0.00;0.00;;;25.40;40.60;;;;;;5327643;26;20353;-49
2024/04/09 02:22:16;;;;;;;0.00;0.00;;;25.40;40.70;;;;;;5341307;26;20219;-54
2024/04/09 02:24:51;;;;;;;0.00;0.00;;;25.40;40.80;;;;;;5339831;26;20219;-51
2024/04/09 02:27:21;;;;;;;0.00;0.00;;;25.40;40.80;;;;;;5335339;26;20266;-50
2024/04/09 02:29:54;;;;;;;0.00;0.00;;;25.40;41.50;;;;;;5340668;26;20223;-48
2024/04/09 02:32:24;;;;;;;0.00;0.00;;;25.40;41.00;;;;;;5339988;26;20257;-50
2024/04/09 02:34:56;;;;;;;0.00;0.00;;;25.50;41.00;;;;;;5319459;26;20221;-54
2024/04/09 02:37:25;;;;;;;0.00;0.00;;;25.40;41.10;;;;;;5305410;26;20259;-52
2024/04/09 02:40:03;;;;;;;0.00;0.00;;;25.50;41.10;;;;;;5306872;26;20241;-48
2024/04/09 02:42:33;;;;;;;0.00;0.00;;;25.50;41.10;;;;;;5315488;26;20227;-55
2024/04/09 02:45:05;;;;;;;0.00;0.00;;;25.50;41.10;;;;;;5340862;26;20223;-53
2024/04/09 02:47:35;;;;;;;0.00;0.00;;;25.50;41.20;;;;;;5339347;26;20227;-55
2024/04/09 02:50:07;;;;;;;0.00;0.00;;;25.50;41.20;;;;;;5335580;26;20239;-50
2024/04/09 02:52:38;;;;;;;0.00;0.00;;;25.50;41.20;;;;;;5313522;26;20451;-50
2024/04/09 02:55:13;;;;;;;0.00;0.00;;;25.50;41.20;;;;;;5306160;26;20268;-54
2024/04/09 02:57:43;;;;;;;0.00;0.00;;;25.50;41.20;;;;;;5305809;26;20236;-53
2024/04/09 03:00:19;;;;;;;0.00;0.00;;;25.40;41.10;;;;;;5324278;26;20277;-48
2024/04/09 03:02:51;;;;;;;0.00;0.00;;;25.50;41.20;;;;;;5329349;26;20243;-49
2024/04/09 03:05:26;;;;;;;0.00;0.00;;;25.50;41.20;;;;;;5339809;26;20219;-49
2024/04/09 03:07:56;;;;;;;0.00;0.00;;;25.50;41.20;;;;;;5340765;26;20226;-48
2024/04/09 03:10:36;;;;;;;0.00;0.00;;;25.50;41.30;;;;;;5340062;26;20219;-54
2024/04/09 03:13:08;;;;;;;0.00;0.00;;;25.50;41.30;;;;;;5340193;26;20262;-48
2024/04/09 03:15:37;;;;;;;0.00;0.00;;;25.50;41.30;;;;;;5341185;26;20232;-49
2024/04/09 03:18:10;;;;;;;0.03;0.03;;;25.50;41.30;;;;;;5340344;26;20239;-49
2024/04/09 03:20:40;;;;;;;0.00;0.00;;;25.50;41.40;;;;;;5340360;26;20700;-50
2024/04/09 03:23:12;;;;;;;0.00;0.00;;;25.50;41.30;;;;;;5340085;26;20272;-51
2024/04/09 03:25:48;;;;;;;0.00;0.00;;;25.50;41.30;;;;;;5340480;26;20224;-52
2024/04/09 03:28:20;;;;;;;0.00;0.00;;;25.50;41.40;;;;;;5333212;26;20275;-51
2024/04/09 03:30:58;;;;;;;0.10;0.10;;;25.50;41.30;;;;;;5305612;26;20747;-52
2024/04/09 03:33:30;;;;;;;0.00;0.00;;;25.50;41.40;;;;;;5327311;26;20220;-50
2024/04/09 03:36:00;;;;;;;0.00;0.00;;;25.50;41.30;;;;;;5340644;26;20223;-55
2024/04/09 03:38:32;;;;;;;0.00;0.00;;;25.50;41.30;;;;;;5338845;26;20766;-51
2024/04/09 03:41:05;;;;;;;0.00;0.00;;;25.50;41.30;;;;;;5339566;26;20224;-52
2024/04/09 03:43:38;;;;;;;0.00;0.00;;;25.50;41.30;;;;;;5339757;26;20224;-52
2024/04/09 03:46:08;;;;;;;0.00;0.00;;;25.50;41.40;;;;;;5329270;26;20228;-50
2024/04/09 03:48:41;;;;;;;0.00;0.00;;;25.50;41.40;;;;;;5309902;26;20228;-53
2024/04/09 03:51:10;;;;;;;0.00;0.00;;;25.50;41.50;;;;;;5319563;26;20268;-48
2024/04/09 03:53:43;;;;;;;0.00;0.00;;;25.50;41.60;;;;;;5324817;26;20232;-54
2024/04/09 03:56:16;;;;;;;0.00;0.00;;;25.60;41.60;;;;;;5324602;26;20236;-53
2024/04/09 03:58:49;;;;;;;0.00;0.00;;;25.60;41.50;;;;;;5339735;26;20338;-51
2024/04/09 04:01:18;;;;;;;0.00;0.00;;;25.60;41.40;;;;;;5344523;26;20270;-56
2024/04/09 04:03:51;;;;;;;0.00;0.00;;;25.60;41.40;;;;;;5344119;26;20554;-57
2024/04/09 04:06:21;;;;;;;0.00;0.00;;;25.60;41.40;;;;;;5344351;26;20215;-57
2024/04/09 04:08:53;;;;;;;0.00;0.00;;;25.60;41.30;;;;;;5343883;26;20247;-53
2024/04/09 04:11:25;;;;;;;0.00;0.00;;;25.60;41.30;;;;;;5344597;26;20688;-48
2024/04/09 04:13:58;;;;;;;0.00;0.00;;;25.60;41.40;;;;;;5343880;26;20224;-50
2024/04/09 04:16:27;;;;;;;0.00;0.00;;;25.60;41.30;;;;;;5342640;26;20258;-50
2024/04/09 04:18:59;;;;;;;0.00;0.00;;;25.60;41.30;;;;;;5343353;26;20311;-48
2024/04/09 04:21:29;;;;;;;0.00;0.00;;;25.60;41.30;;;;;;5343758;26;20220;-48
2024/04/09 04:24:01;;;;;;;0.10;0.10;;;25.60;41.40;;;;;;5344355;26;20218;-51
2024/04/09 04:26:33;;;;;;;0.00;0.00;;;25.60;41.40;;;;;;5344683;26;20219;-51
2024/04/09 04:29:08;;;;;;;0.00;0.00;;;25.60;41.40;;;;;;5342767;26;20231;-49
2024/04/09 04:31:39;;;;;;;0.00;0.00;;;25.60;41.30;;;;;;5336476;26;20627;-51
2024/04/09 04:34:11;;;;;;;0.00;0.00;;;25.60;41.30;;;;;;5334653;26;20231;-50
2024/04/09 04:36:41;;;;;;;0.00;0.00;;;25.60;41.20;;;;;;5322468;26;20592;-49
2024/04/09 04:39:14;;;;;;;0.08;0.08;;;25.60;41.30;;;;;;5319986;26;20233;-48
2024/04/09 04:41:47;;;;;;;0.00;0.00;;;25.60;41.40;;;;;;5331226;26;20282;-51
2024/04/09 04:44:19;;;;;;;0.00;0.00;;;25.50;41.40;;;;;;5337871;26;20223;-51
2024/04/09 04:46:49;;;;;;;0.03;0.03;;;25.50;41.40;;;;;;5337559;26;20273;-48
2024/04/09 04:49:21;;;;;;;0.00;0.00;;;25.50;41.40;;;;;;5332901;26;20307;-50
2024/04/09 04:51:50;;;;;;;0.00;0.00;;;25.50;41.40;;;;;;5339053;26;20221;-53
2024/04/09 04:54:23;;;;;;;0.00;0.00;;;25.50;41.30;;;;;;5306546;26;20319;-50
2024/04/09 04:56:56;;;;;;;0.00;0.00;;;25.50;41.30;;;;;;5303222;26;20228;-52
2024/04/09 04:59:28;;;;;;;0.00;0.00;;;25.50;41.20;;;;;;5314872;26;20294;-49
2024/04/09 05:01:57;;;;;;;0.00;0.00;;;25.50;41.30;;;;;;5335987;26;20707;-53
2024/04/09 05:04:29;;;;;;;0.00;0.00;;;25.50;41.30;;;;;;5338473;26;20223;-52
2024/04/09 05:06:58;;;;;;;0.00;0.00;;;25.50;41.30;;;;;;5338286;26;20715;-52
2024/04/09 05:09:31;;;;;;;0.00;0.00;;;25.50;41.30;;;;;;5338051;26;20349;-54
2024/04/09 05:12:04;;;;;;;0.00;0.00;;;25.50;41.30;;;;;;5338736;26;20212;-51
2024/04/09 05:14:36;;;;;;;0.00;0.00;;;25.50;41.20;;;;;;5337896;26;20349;-50
2024/04/09 05:17:06;;;;;;;0.00;0.00;;;25.50;41.30;;;;;;5328288;26;20220;-52
2024/04/09 05:19:39;;;;;;;0.00;0.00;;;25.50;41.30;;;;;;5304591;26;20284;-48
2024/04/09 05:22:09;;;;;;;0.00;0.00;;;25.40;41.20;;;;;;5303529;26;20216;-51
2024/04/09 05:24:44;;;;;;;0.00;0.00;;;25.40;41.20;;;;;;5303121;26;20224;-48
2024/04/09 05:27:16;;;;;;;0.00;0.00;;;25.40;41.20;;;;;;5303523;26;20270;-53
2024/04/09 05:29:48;;;;;;;0.00;0.00;;;25.40;41.20;;;;;;5319871;26;20243;-50
2024/04/09 05:32:17;;;;;;;0.00;0.00;;;25.40;41.20;;;;;;5338657;26;20781;-49
2024/04/09 05:34:50;;;;;;;0.00;0.00;;;25.40;41.20;;;;;;5337338;26;20227;-49
2024/04/09 05:37:19;;;;;;;0.00;0.00;;;25.40;41.30;;;;;;5336742;26;20262;-48
2024/04/09 05:39:51;;;;;;;0.10;0.10;;;25.40;41.20;;;;;;5338391;26;20272;-50
2024/04/09 05:42:24;;;;;;;0.00;0.00;;;25.40;41.30;;;;;;5339608;26;20219;-50
2024/04/09 05:44:56;;;;;;;0.00;0.00;;;25.40;41.30;;;;;;5341930;26;20228;-51
2024/04/09 05:47:25;;;;;;;0.00;0.00;;;25.40;41.30;;;;;;5341640;26;20220;-52
2024/04/09 05:49:58;;;;;;;0.03;0.03;;;25.40;41.20;;;;;;5333201;26;20271;-50
2024/04/09 05:52:29;;;;;;;0.00;0.00;;;25.30;41.20;;;;;;5340545;26;20212;-48
2024/04/09 05:55:02;;;;;;;0.03;0.03;;;25.40;41.30;;;;;;5341874;26;21069;-49
2024/04/09 05:57:37;;;;;;;0.03;0.03;;;25.30;41.20;;;;;;5340271;26;20873;-49
2024/04/09 06:00:14;;;;;;;0.00;0.00;;;25.30;41.20;;;;;;5340784;26;20261;-54
2024/04/09 06:02:45;;;;;;;0.00;0.00;;;25.30;41.20;;;;;;5340272;26;20219;-50
2024/04/09 06:05:19;;;;;;;0.00;0.00;;;25.30;41.20;;;;;;5340312;26;20224;-48
2024/04/09 06:07:48;;;;;;;0.00;0.00;;;25.30;41.20;;;;;;5340022;26;20227;-49
2024/04/09 06:10:21;;;;;;;0.10;0.10;;;25.30;41.20;;;;;;5340521;26;20262;-49
2024/04/09 06:12:53;;;;;;;0.00;0.00;;;25.20;41.20;;;;;;5340346;26;20215;-50
2024/04/09 06:15:25;;;;;;;0.00;0.00;;;25.20;41.20;;;;;;5340711;26;20231;-53
2024/04/09 06:17:55;;;;;;;0.00;0.00;;;25.20;41.20;;;;;;5342242;26;20328;-48
2024/04/09 06:20:27;;;;;;;0.08;0.08;;;25.20;41.30;;;;;;5340116;26;20234;-50
2024/04/09 06:22:56;;;;;;;0.00;0.00;;;25.20;41.40;;;;;;5340838;26;20797;-50
2024/04/09 06:25:28;;;;;;;0.00;0.00;;;25.20;41.50;;;;;;5340025;26;20758;-50
2024/04/09 06:28:01;;;;;;;0.08;0.08;;;25.20;41.50;;;;;;5339931;26;20336;-50
2024/04/09 06:30:33;;;;;;;0.00;0.00;;;25.20;41.50;;;;;;5340495;26;20467;-52
2024/04/09 06:33:03;;;;;;;0.00;0.00;;;25.20;41.50;;;;;;5345788;26;20220;-51
2024/04/09 06:35:35;;;;;;;0.00;0.00;;;25.20;41.60;;;;;;5344996;26;20290;-50
2024/04/09 06:38:04;;;;;;;0.00;0.00;;;25.20;41.60;;;;;;5345571;26;20235;-49
2024/04/09 06:40:37;;;;;;;0.00;0.00;;;25.20;41.60;;;;;;5345366;26;20634;-48
2024/04/09 06:43:10;;;;;;;0.00;0.00;;;25.20;41.60;;;;;;5339807;26;20246;-47
2024/04/09 06:45:42;;;;;;;0.00;0.00;;;25.20;41.60;;;;;;5309860;26;20264;-51
2024/04/09 06:48:11;;;;;;;0.00;0.00;;;25.10;41.60;;;;;;5310690;26;20225;-49
2024/04/09 06:50:45;;;;;;;0.00;0.00;;;25.10;41.60;;;;;;5311142;26;20275;-51
2024/04/09 06:53:14;;;;;;;0.00;0.00;;;25.10;41.70;;;;;;5310646;26;20261;-51
2024/04/09 06:55:47;;;;;;;0.00;0.00;;;25.10;41.70;;;;;;5315653;26;20334;-50
2024/04/09 06:58:20;;;;;;;0.00;0.00;;;25.10;41.70;;;;;;5327441;26;20270;-48
2024/04/09 07:00:53;;;;;;;0.00;0.00;;;25.10;41.80;;;;;;5345262;26;20561;-49
2024/04/09 07:03:23;;;;;;;0.00;0.00;;;25.10;41.80;;;;;;5345437;26;20262;-50
2024/04/09 07:05:56;;;;;;;0.00;0.00;;;25.10;41.90;;;;;;5337033;26;20263;-51
2024/04/09 07:08:25;;;;;;;0.00;0.00;;;25.10;42.00;;;;;;5310772;26;20590;-48
2024/04/09 07:11:02;;;;;;;0.00;0.00;;;25.10;42.10;;;;;;5310758;26;20221;-50
2024/04/09 07:13:34;;;;;;;0.00;0.00;;;25.10;42.10;;;;;;5310396;26;20246;-51
2024/04/09 07:16:07;;;;;;;0.00;0.00;;;25.10;42.20;;;;;;5309500;26;20292;-52
2024/04/09 07:18:36;;;;;;;0.00;0.00;;;25.10;42.30;;;;;;5310004;26;20224;-51
2024/04/09 07:21:08;;;;;;;0.00;0.00;;;25.10;42.30;;;;;;5310246;26;20221;-49
2024/04/09 07:23:38;;;;;;;0.00;0.00;;;25.10;42.30;;;;;;5310275;26;20267;-48
2024/04/09 07:26:10;;;;;;;0.00;0.00;;;25.10;42.40;;;;;;5310038;26;20318;-51
2024/04/09 07:28:42;;;;;;;0.00;0.00;;;25.10;42.40;;;;;;5309985;26;20232;-52
2024/04/09 07:31:15;;;;;;;0.00;0.00;;;25.10;42.40;;;;;;5310160;26;20705;-51
2024/04/09 07:33:47;;;;;;;0.00;0.00;;;25.10;42.40;;;;;;5336947;26;20223;-51
2024/04/09 07:36:20;;;;;;;0.00;0.00;;;25.00;42.40;;;;;;5344984;26;20517;-54
2024/04/09 07:38:52;;;;;;;0.00;0.00;;;25.10;42.50;;;;;;5344788;26;20235;-50
2024/04/09 07:41:25;;;;;;;0.00;0.00;;;25.00;42.50;;;;;;5344508;26;20308;-53
2024/04/09 07:43:58;;;;;;;0.00;0.00;;;25.00;42.50;;;;;;5344636;26;20679;-50
2024/04/09 07:46:30;;;;;;;0.00;0.00;;;25.00;42.50;;;;;;5343008;26;20265;-58
2024/04/09 07:49:00;;;;;;;0.00;0.00;;;25.00;42.50;;;;;;5343166;26;20691;-51
2024/04/09 07:51:32;;;;;;;0.00;0.00;;;25.00;42.50;;;;;;5345062;26;20703;-51
2024/04/09 07:54:01;;;;;;;0.08;0.08;;;25.00;42.60;;;;;;5344726;26;20250;-49
2024/04/09 07:56:34;;;;;;;0.00;0.00;;;25.00;42.50;;;;;;5344395;26;20224;-47
2024/04/09 07:59:22;;;;;;;0.00;0.00;;;25.00;42.50;;;;;;5344304;26;20235;-52
2024/04/09 08:01:55;;;;;;;0.00;0.00;;;25.00;42.60;;;;;;5343151;26;20220;-48
2024/04/09 08:04:24;;;;;;;0.00;0.00;;;25.00;42.60;;;;;;5343560;26;20258;-50
2024/04/09 08:06:57;;;;;;;0.00;0.00;;;25.00;42.60;;;;;;5344688;26;20255;-48
2024/04/09 08:09:27;;;;;;;0.00;0.00;;;24.90;42.60;;;;;;5344729;26;20277;-47
2024/04/09 08:12:00;;;;;;;0.00;0.00;;;24.90;42.60;;;;;;5344759;26;20219;-54
2024/04/09 08:14:32;;;;;;;0.00;0.00;;;24.90;42.60;;;;;;5334290;26;20270;-56
2024/04/09 08:17:04;;;;;;;0.00;0.00;;;24.90;42.60;;;;;;5325610;26;20754;-50
2024/04/09 08:19:34;;;;;;;0.00;0.00;;;25.00;42.70;;;;;;5338043;26;20321;-52
2024/04/09 08:22:06;;;;;;;0.00;0.00;;;24.90;42.60;;;;;;5304283;26;20791;-48
2024/04/09 08:24:35;;;;;;;0.00;0.00;;;24.90;42.70;;;;;;5304431;26;20255;-56
2024/04/09 08:27:08;;;;;;;0.00;0.00;;;24.90;42.80;;;;;;5304547;26;20716;-54
2024/04/09 08:29:40;;;;;;;0.00;0.00;;;24.90;42.80;;;;;;5336352;26;20340;-52
2024/04/09 08:32:13;;;;;;;0.00;0.00;;;24.90;42.90;;;;;;5337979;26;20609;-50
2024/04/09 08:34:44;;;;;;;0.00;0.00;;;24.90;42.90;;;;;;5322188;26;20677;-50
2024/04/09 08:37:16;;;;;;;0.00;0.00;;;24.90;43.00;;;;;;5334242;26;20579;-51
2024/04/09 08:39:52;;;;;;;0.00;0.00;;;24.90;43.10;;;;;;5336369;26;20231;-47
2024/04/09 08:42:25;;;;;;;0.00;0.00;;;24.90;43.10;;;;;;5337845;26;20223;-48
2024/04/09 08:45:00;;;;;;;0.00;0.00;;;24.90;43.20;;;;;;5337590;26;20223;-47
2024/04/09 08:47:33;;;;;;;0.00;0.00;;;24.90;43.20;;;;;;5333649;26;20239;-47
2024/04/09 08:50:03;;;;;;;0.00;0.00;;;24.90;43.30;;;;;;5325433;26;20322;-49
2024/04/09 08:52:36;;;;;;;0.00;0.00;;;24.80;43.20;;;;;;5305639;26;20303;-47
2024/04/09 08:55:05;;;;;;;0.00;0.00;;;24.80;43.20;;;;;;5327287;26;20554;-50
2024/04/09 08:57:39;;;;;;;0.00;0.00;;;24.80;43.20;;;;;;5339203;26;20257;-48
2024/04/09 09:00:16;;;;;;;0.00;0.00;;;24.80;43.20;;;;;;5326112;26;20229;-47
2024/04/09 09:02:48;;;;;;;0.05;0.05;;;24.90;43.20;;;;;;5332429;26;20745;-47
2024/04/09 09:05:22;;;;;;;0.00;0.00;;;24.90;43.20;;;;;;5323333;26;20272;-52
2024/04/09 09:08:05;;;;;;;0.00;0.00;;;24.80;43.10;;;;;;5333224;26;20214;-47
2024/04/09 09:10:35;;;;;;;0.00;0.00;;;24.90;43.20;;;;;;5306623;26;20233;-53
2024/04/09 09:13:08;;;;;;;0.00;0.00;;;24.90;43.20;;;;;;5317218;26;20278;-47
2024/04/09 09:15:40;;;;;;;0.00;0.00;;;24.80;43.20;;;;;;5340666;26;20804;-47
2024/04/09 09:18:13;;;;;;;0.00;0.00;;;24.80;43.20;;;;;;5341191;26;20282;-47
2024/04/09 09:20:42;;;;;;;0.00;0.00;;;24.80;43.20;;;;;;5340625;26;20266;-47
2024/04/09 09:23:23;;;;;;;0.00;0.00;;;24.80;43.30;;;;;;5342284;26;20231;-48
2024/04/09 09:25:52;;;;;;;0.00;0.00;;;24.80;43.30;;;;;;5341057;26;20227;-47
2024/04/09 09:28:25;;;;;;;0.00;0.00;;;24.80;43.30;;;;;;5341094;26;20283;-51
2024/04/09 09:30:59;;;;;;;0.00;0.00;;;24.80;43.40;;;;;;5340245;26;20231;-47
2024/04/09 09:33:33;;;;;;;0.00;0.00;;;24.80;43.40;;;;;;5342636;26;20796;-53
2024/04/09 09:36:02;;;;;;;0.00;0.00;;;24.70;43.40;;;;;;5339881;26;20255;-48
2024/04/09 09:38:35;;;;;;;0.00;0.00;;;24.80;43.40;;;;;;5334372;26;20232;-50
2024/04/09 09:41:06;;;;;;;0.00;0.00;;;24.70;43.40;;;;;;5320168;26;20277;-52
2024/04/09 09:43:39;;;;;;;0.00;0.00;;;24.80;43.40;;;;;;5326613;26;20559;-51
2024/04/09 09:46:13;;;;;;;0.00;0.00;;;24.70;43.30;;;;;;5322373;26;20224;-49
2024/04/09 09:48:46;;;;;;;0.00;0.00;;;24.70;43.30;;;;;;5328154;26;20228;-50
2024/04/09 09:51:16;;;;;;;0.00;0.00;;;24.80;43.30;;;;;;5323501;26;20787;-48
2024/04/09 09:53:48;;;;;;;0.03;0.03;;;24.70;43.20;;;;;;5329684;26;20262;-50
2024/04/09 09:56:18;;;;;;;0.10;0.10;;;24.70;43.20;;;;;;5342527;26;20270;-47
2024/04/09 09:58:52;;;;;;;0.00;0.00;;;24.70;43.20;;;;;;5325469;26;20668;-50
2024/04/09 10:01:25;;;;;;;0.00;0.00;;;24.80;43.10;;;;;;5322128;26;20223;-50
2024/04/09 10:03:58;;;;;;;0.00;0.00;;;24.70;43.10;;;;;;5333267;26;20224;-48
2024/04/09 10:06:30;;;;;;;0.00;0.00;;;24.70;43.10;;;;;;5306026;26;20608;-47
2024/04/09 10:09:11;;;;;;;0.00;0.00;;;24.70;43.20;;;;;;5316223;26;20239;-48
2024/04/09 10:11:44;;;;;;;0.00;0.00;;;24.70;43.30;;;;;;5305774;26;20228;-49
2024/04/09 10:14:27;;;;;;;0.00;0.00;;;24.70;43.20;;;;;;5319987;26;20235;-48
2024/04/09 10:17:11;;;;;;;0.00;0.00;;;24.70;43.30;;;;;;5339525;26;20767;-52
2024/04/09 10:19:44;;;;;;;0.00;0.00;;;24.70;43.30;;;;;;5355840;21;20278;-47
2024/04/09 10:22:16;;;;;;;0.00;0.00;;;24.60;43.30;;;;;;5321221;26;20353;-49
2024/04/09 10:24:49;;;;;;;0.00;0.00;;;24.60;43.30;;;;;;5306864;26;20262;-50
2024/04/09 10:27:21;;;;;;;0.00;0.00;;;24.60;43.30;;;;;;5306169;26;20700;-50
2024/04/09 10:30:00;;;;;;;0.00;0.00;;;24.60;43.30;;;;;;5340897;26;20231;-48
2024/04/09 10:32:34;;;;;;;0.08;0.08;;;24.60;43.30;;;;;;5331444;26;20712;-49
2024/04/09 10:35:16;;;;;;;0.00;0.00;;;24.60;43.30;;;;;;5307552;26;20217;-49
2024/04/09 10:37:46;;;;;;;0.00;0.00;;;24.60;43.30;;;;;;5305385;26;20216;-51
2024/04/09 10:40:18;;;;;;;0.00;0.00;;;24.60;43.30;;;;;;5319205;26;20244;-51
2024/04/09 10:42:47;;;;;;;0.00;0.00;;;24.60;43.20;;;;;;5285963;26;20233;-57
2024/04/09 10:45:56;;;;;;;0.00;0.00;;;24.60;43.20;;;;;;5291551;27;20275;-50
2024/04/09 10:48:29;;;;;;;0.00;0.00;;;24.60;43.40;;;;;;5306914;26;20387;-55
2024/04/09 10:51:02;;;;;;;0.00;0.00;;;24.60;43.20;;;;;;5305047;26;20228;-49
2024/04/09 10:53:34;;;;;;;0.00;0.00;;;24.60;43.20;;;;;;5313672;26;20261;-48
2024/04/09 10:56:07;;;;;;;0.00;0.00;;;24.60;43.20;;;;;;5303208;27;20334;-48
2024/04/09 10:58:40;;;;;;;0.00;0.00;;;24.60;43.30;;;;;;5305812;26;20354;-47
2024/04/09 11:01:15;;;;;;;0.00;0.00;;;24.60;43.30;;;;;;5296827;26;20229;-49
2024/04/09 11:03:47;;;;;;;0.00;0.00;;;24.60;43.30;;;;;;5306777;26;20225;-48
2024/04/09 11:06:20;;;;;;;0.00;0.00;;;24.60;43.30;;;;;;5305606;26;20267;-51
2024/04/09 11:08:53;;;;;;;0.00;0.00;;;24.50;43.30;;;;;;5304959;26;20368;-52
2024/04/09 11:11:22;;;;;;;0.00;0.00;;;24.50;43.90;;;;;;5306189;26;20697;-56
2024/04/09 11:13:55;;;;;;;0.00;0.00;;;24.50;43.20;;;;;;5303887;26;20712;-49
2024/04/09 11:16:24;;;;;;;0.00;0.00;;;24.50;43.20;;;;;;5306688;26;20866;-49
2024/04/09 11:19:06;;;;;;;0.00;0.00;;;24.50;43.30;;;;;;5316644;21;20256;-51
2024/04/09 11:21:35;;;;;;;0.00;0.00;;;24.50;43.30;;;;;;5286636;26;20836;-48
2024/04/09 11:24:08;;;;;;;0.00;0.00;;;24.50;43.20;;;;;;5271190;27;20264;-49
2024/04/09 11:26:37;;;;;;;0.00;0.00;;;24.50;43.10;;;;;;5272291;27;20226;-54
2024/04/09 11:29:20;;;;;;;0.00;0.00;;;24.50;43.00;;;;;;5271543;27;20237;-51
2024/04/09 11:31:50;;;;;;;0.00;0.00;;;24.50;43.00;;;;;;5272375;27;20319;-47
2024/04/09 11:34:35;;;;;;;0.00;0.00;;;24.50;42.90;;;;;;5289014;27;20298;-51
2024/04/09 11:37:05;;;;;;;0.10;0.10;;;24.50;42.80;;;;;;5304639;26;20208;-51
2024/04/09 11:39:38;;;;;;;0.00;0.00;;;24.60;42.80;;;;;;5286072;26;20240;-48
2024/04/09 11:42:07;;;;;;;0.00;0.00;;;24.50;42.80;;;;;;5284597;27;20341;-50
2024/04/09 11:44:40;;;;;;;0.00;0.00;;;24.60;42.80;;;;;;5293387;27;20274;-52
2024/04/09 11:47:09;;;;;;;0.00;0.00;;;24.50;42.80;;;;;;5292179;27;20280;-53
2024/04/09 11:49:44;;;;;;;0.00;0.00;;;24.50;42.80;;;;;;5290376;26;20348;-54
2024/04/09 11:52:13;;;;;;;0.00;0.00;;;24.50;42.80;;;;;;5291528;26;20224;-50
2024/04/09 11:54:46;;;;;;;0.00;0.00;;;24.50;42.70;;;;;;5277023;27;20234;-52
2024/04/09 11:57:15;;;;;;;0.00;0.00;;;24.50;42.80;;;;;;5290416;26;20337;-50
2024/04/09 11:59:50;;;;;;;0.00;0.00;;;24.50;42.70;;;;;;5290801;27;20351;-53
2024/04/09 12:02:20;;;;;;;0.10;0.10;;;24.50;42.70;;;;;;5289097;26;20224;-53
2024/04/09 12:04:55;;;;;;;0.03;0.03;;;24.50;42.80;;;;;;5292001;27;20230;-54
2024/04/09 12:07:24;;;;;;;0.00;0.00;;;24.40;42.70;;;;;;5290554;27;20714;-53
2024/04/09 12:09:56;;;;;;;0.00;0.00;;;24.40;42.70;;;;;;5290699;26;20248;-50
2024/04/09 12:12:26;;;;;;;0.00;0.00;;;24.40;42.70;;;;;;5277242;27;20229;-53
2024/04/09 12:14:58;;;;;;;0.00;0.00;;;24.50;42.80;;;;;;5290735;26;20233;-55
2024/04/09 12:17:28;;;;;;;0.00;0.00;;;24.50;42.80;;;;;;5292016;27;20229;-51
2024/04/09 12:20:03;;;;;;;0.00;0.00;;;24.50;42.80;;;;;;5290804;26;20275;-54
2024/04/09 12:22:33;;;;;;;0.00;0.00;;;24.50;42.80;;;;;;5290713;26;20228;-50
2024/04/09 12:25:05;;;;;;;0.00;0.00;;;24.50;42.90;;;;;;5290302;27;20328;-53
2024/04/09 12:27:35;;;;;;;0.00;0.00;;;24.50;42.90;;;;;;5295729;26;20296;-47
2024/04/09 12:30:08;;;;;;;0.00;0.00;;;24.50;42.90;;;;;;5281556;27;20623;-50
2024/04/09 12:32:40;;;;;;;0.00;0.00;;;24.50;42.90;;;;;;5285435;26;20247;-51
2024/04/09 12:35:16;;;;;;;0.00;0.00;;;24.50;42.90;;;;;;5291937;26;20834;-51
2024/04/09 12:37:46;;;;;;;0.00;0.00;;;24.50;43.00;;;;;;5291404;27;20360;-53
2024/04/09 12:40:18;;;;;;;0.00;0.00;;;24.50;43.00;;;;;;5289362;26;20602;-52
2024/04/09 12:42:49;;;;;;;0.00;0.00;;;24.50;43.00;;;;;;5283947;27;20232;-48
2024/04/09 12:45:21;;;;;;;0.00;0.00;;;24.50;43.10;;;;;;5293396;27;20244;-55
2024/04/09 12:47:50;;;;;;;0.00;0.00;;;24.50;43.10;;;;;;5292393;27;20233;-54
2024/04/09 12:50:26;;;;;;;0.00;0.00;;;24.40;43.10;;;;;;5290773;26;20230;-48
2024/04/09 12:52:55;;;;;;;0.00;0.00;;;24.40;43.20;;;;;;5293671;26;20949;-56
2024/04/09 12:55:28;;;;;;;0.00;0.00;;;24.40;43.20;;;;;;5288331;27;20346;-50
2024/04/09 12:57:58;;;;;;;0.00;0.00;;;24.40;43.30;;;;;;5291730;27;20233;-49
2024/04/09 13:00:33;;;;;;;0.00;0.00;;;24.50;43.30;;;;;;5295140;26;20275;-53
2024/04/09 13:03:04;;;;;;;0.00;0.00;;;24.40;43.30;;;;;;5291375;27;20313;-50
2024/04/09 13:05:39;;;;;;;0.00;0.00;;;24.40;43.30;;;;;;5279227;27;20225;-56
2024/04/09 13:08:09;;;;;;;0.00;0.00;;;24.40;43.30;;;;;;5281605;26;20263;-48
2024/04/09 13:10:41;;;;;;;0.00;0.00;;;24.40;43.30;;;;;;5278322;27;20863;-51
2024/04/09 13:13:10;;;;;;;0.03;0.03;;;24.40;43.30;;;;;;5278442;27;20221;-50